Troy, NC

4:05 PM EDT on July 07, 2015 (GMT -0400)
Little River Valley | | Change Station
CLOSE
Current Station
Personal Weather Station
Location: Star, NC
Elevation: 528 ft
Nearby Weather Stations

Elev 528 ft 35.39 °N, 79.82 °W | Updated 9 minutes ago

Partly Cloudy
Partly Cloudy
89.8 °F
Feels Like 99 °F
N
4.3
Wind Variable Wind from NE

Today
High -- | Low -- °F
--% Chance of Precip.
Yesterday
High -- | Low -- °F
Precip. -- in
6:10 AM 8:37 PM
Waning Gibbous, 62% visible
Pressure 30.12 in
Visibility 10.0 miles
Clouds Scattered Clouds 6000 ft
Heat Index 99 °F
Dew Point 74 °F
Humidity 60%
Rainfall 0.00 in
Snow Depth Not available.
UV 7 out of 12
Pollen 3.50 out of 12
Air Quality Not available.
Flu Activity Not available.
METAR KVUJ 071955Z AUTO 28004KT 10SM SCT060 33/20 A3012 RMK AO2 T03300203

More Conditions Fewer Conditions

Pressure 30.12 in
Visibility 10.0 miles
Clouds Scattered Clouds 6000 ft
Heat Index 99 °F
Dew Point 74 °F
Humidity 60%
Rainfall 0.00 in
Snow Depth Not available.
UV 7 out of 12
Pollen 3.50 out of 12
Air Quality Not available.
Flu Activity Not available.
METAR KVUJ 071955Z AUTO 28004KT 10SM SCT060 33/20 A3012 RMK AO2 T03300203

More Conditions Fewer Conditions

10-Day Weather Forecast

×

Almanac

Astronomy

Jul. 07, 2015 Rise Set
Actual Time
Civil Twilight
Nautical Twilight
Astronomical Twilight
Moon
Length of Visible Light
Length of Day
Tomorrow will be .
, % of the Moon is Illuminated

Today's Extremes

State Highs State Lows

Community

WunderPhotos

Upload Photos

1,835,884 photos uploaded!

WunderBlogs® & News

Nearby

Air Quality

  Air Quality AQ Index Pollutant
Not available.

Snow Depth

Station Depth Elevation

Earthquake Activity

City Distance Mag. Time & Date
Minimum magnitude displayed is 2.5.

Coastal Water Temperatures

Place Temperature

Stations

Nearby Weather Stations

Station Location Temp. Windchill Dew Point Humidity Wind Precip. Elev Updated Type